Aérodrome :
LOGIN :

S'inscrire | Disclaimer

   EN    FR    IT 

 










Légende :    VFR   VFR Marginal   IFR   IFR Intensif   IFR Très Intensif
Visi : 
Plafond : 
>= 8 km
>= 3000ft
5 à 8 km
1000 à 3000 ft
1500m à 5 km
500 à 1000 ft
800 à 1500m
200 à 500 ft
< 800m
< 200 ft
Symboles :   Orages  Brouillard  Fortes neiges  Fortes précipitations  Vent > 20 kt
SIGMETs :   Divers  Orages  Givrage  Turbulence  Onde Orograph.  Cendres Volcan.






- Altitude de l'aérodrome : 269 ft
- Code IATA : HTY


LTDA - Hatay

DERNIER METAR :
  • 021250Z 23018G28KT 9999 SCT040 20/05 Q1012 NOSIG

METARs EXPIRÉS :
  • 021150Z 22019KT 9999 SCT035 20/06 Q1012 TEMPO 24018G28KT
  • 021050Z 22018KT 9999 SCT035 20/09 Q1012 TEMPO FM1200 24018G28KT

TAF TAF LTDA
Valide du 02 à 12h jusqu'au 02 à 21h UTC


021040Z 0212/0221 24015KT 9999 SCT040
TEMPO 0212/0215 24018G28KT



MET'MAP, la Météo Aéronautique d'un coup d'oeil ! - Copyright ORBIFLY Décembre 2007 - Disclaimer

ORBIFLY MET'MAP TEAM :

Programmation & Développement : Alexandra Zaïnal
Sur une idée originale de : Baudouin d'Aumeries
Assistance à la programmation : Marc-Olivier Méhu
Soutien technique & logistique : Manuel Goepfert

Contact : metmap@orbifly.com




SOURCES & CREDITS :

   NOAA